sensor_id;sensor_type;location;lat;lon;timestamp;temperature;humidity
15916;DHT22;8057;47.830;-3.870;2023-04-01T00:00:31;12.20;99.90
15916;DHT22;8057;47.830;-3.870;2023-04-01T00:05:09;12.10;99.90
15916;DHT22;8057;47.830;-3.870;2023-04-01T00:09:36;12.20;99.90
15916;DHT22;8057;47.830;-3.870;2023-04-01T00:13:56;12.10;99.90
15916;DHT22;8057;47.830;-3.870;2023-04-01T00:50:30;11.80;99.90
15916;DHT22;8057;47.830;-3.870;2023-04-01T00:55:06;11.80;99.90
15916;DHT22;8057;47.830;-3.870;2023-04-01T01:00:10;11.90;99.90
15916;DHT22;8057;47.830;-3.870;2023-04-01T01:04:38;11.80;99.90
15916;DHT22;8057;47.830;-3.870;2023-04-01T01:09:42;11.70;99.90
15916;DHT22;8057;47.830;-3.870;2023-04-01T01:14:23;11.80;99.90
15916;DHT22;8057;47.830;-3.870;2023-04-01T01:18:55;11.90;99.90
15916;DHT22;8057;47.830;-3.870;2023-04-01T01:23:37;12.00;99.90
15916;DHT22;8057;47.830;-3.870;2023-04-01T01:28:50;12.00;99.90
15916;DHT22;8057;47.830;-3.870;2023-04-01T01:33:53;11.90;99.90
15916;DHT22;8057;47.830;-3.870;2023-04-01T01:43:28;11.90;99.90
15916;DHT22;8057;47.830;-3.870;2023-04-01T01:47:50;11.90;99.90
15916;DHT22;8057;47.830;-3.870;2023-04-01T01:52:34;11.90;99.90
15916;DHT22;8057;47.830;-3.870;2023-04-01T01:57:26;11.80;99.90
15916;DHT22;8057;47.830;-3.870;2023-04-01T02:32:54;11.70;99.90
15916;DHT22;8057;47.830;-3.870;2023-04-01T02:37:30;11.70;99.90
15916;DHT22;8057;47.830;-3.870;2023-04-01T02:41:58;11.70;99.90
15916;DHT22;8057;47.830;-3.870;2023-04-01T02:46:22;11.80;99.90
15916;DHT22;8057;47.830;-3.870;2023-04-01T02:51:11;11.70;99.90
15916;DHT22;8057;47.830;-3.870;2023-04-01T02:55:42;11.70;99.90
15916;DHT22;8057;47.830;-3.870;2023-04-01T03:00:33;11.70;99.90
15916;DHT22;8057;47.830;-3.870;2023-04-01T03:05:09;11.70;99.90
15916;DHT22;8057;47.830;-3.870;2023-04-01T03:09:25;11.60;99.90
15916;DHT22;8057;47.830;-3.870;2023-04-01T03:13:41;11.50;99.90
15916;DHT22;8057;47.830;-3.870;2023-04-01T03:18:46;11.50;99.90
15916;DHT22;8057;47.830;-3.870;2023-04-01T03:23:37;11.50;99.90
15916;DHT22;8057;47.830;-3.870;2023-04-01T03:28:25;11.50;99.90
15916;DHT22;8057;47.830;-3.870;2023-04-01T03:33:12;11.50;99.90
15916;DHT22;8057;47.830;-3.870;2023-04-01T03:37:53;11.40;99.90
15916;DHT22;8057;47.830;-3.870;2023-04-01T03:42:42;11.50;99.90
15916;DHT22;8057;47.830;-3.870;2023-04-01T03:47:47;11.50;99.90
15916;DHT22;8057;47.830;-3.870;2023-04-01T03:52:11;11.60;99.90
15916;DHT22;8057;47.830;-3.870;2023-04-01T03:56:41;11.50;99.90
15916;DHT22;8057;47.830;-3.870;2023-04-01T04:01:04;11.50;99.90
15916;DHT22;8057;47.830;-3.870;2023-04-01T04:05:27;11.50;99.90
15916;DHT22;8057;47.830;-3.870;2023-04-01T04:09:37;11.50;99.90
15916;DHT22;8057;47.830;-3.870;2023-04-01T04:13:48;11.50;99.90
15916;DHT22;8057;47.830;-3.870;2023-04-01T04:18:07;11.50;99.90
15916;DHT22;8057;47.830;-3.870;2023-04-01T04:22:41;11.40;99.90
15916;DHT22;8057;47.830;-3.870;2023-04-01T04:27:00;11.50;99.90
15916;DHT22;8057;47.830;-3.870;2023-04-01T04:31:25;11.40;99.90
15916;DHT22;8057;47.830;-3.870;2023-04-01T04:35:37;11.30;99.90
15916;DHT22;8057;47.830;-3.870;2023-04-01T04:39:52;11.20;99.90
15916;DHT22;8057;47.830;-3.870;2023-04-01T04:44:28;11.20;99.90
15916;DHT22;8057;47.830;-3.870;2023-04-01T04:49:13;11.20;99.90
15916;DHT22;8057;47.830;-3.870;2023-04-01T04:53:23;11.10;99.90
15916;DHT22;8057;47.830;-3.870;2023-04-01T04:57:36;11.10;99.90
15916;DHT22;8057;47.830;-3.870;2023-04-01T05:01:49;11.10;99.90
15916;DHT22;8057;47.830;-3.870;2023-04-01T05:06:17;11.10;99.90
15916;DHT22;8057;47.830;-3.870;2023-04-01T05:10:41;11.00;99.90
15916;DHT22;8057;47.830;-3.870;2023-04-01T05:14:54;11.00;99.90
15916;DHT22;8057;47.830;-3.870;2023-04-01T05:19:12;11.10;99.90
15916;DHT22;8057;47.830;-3.870;2023-04-01T05:23:43;11.10;99.90
15916;DHT22;8057;47.830;-3.870;2023-04-01T05:27:54;11.10;99.90
15916;DHT22;8057;47.830;-3.870;2023-04-01T05:32:38;11.10;99.90
15916;DHT22;8057;47.830;-3.870;2023-04-01T05:37:20;11.10;99.90
15916;DHT22;8057;47.830;-3.870;2023-04-01T05:41:31;11.10;99.90
15916;DHT22;8057;47.830;-3.870;2023-04-01T05:45:42;11.00;99.90
15916;DHT22;8057;47.830;-3.870;2023-04-01T05:50:31;10.90;99.90
15916;DHT22;8057;47.830;-3.870;2023-04-01T05:55:10;11.00;99.90
15916;DHT22;8057;47.830;-3.870;2023-04-01T05:59:37;11.00;99.90
15916;DHT22;8057;47.830;-3.870;2023-04-01T06:03:48;11.00;99.90
15916;DHT22;8057;47.830;-3.870;2023-04-01T06:08:31;10.90;99.90
15916;DHT22;8057;47.830;-3.870;2023-04-01T06:12:59;10.90;99.90
15916;DHT22;8057;47.830;-3.870;2023-04-01T06:17:34;10.90;99.90
15916;DHT22;8057;47.830;-3.870;2023-04-01T06:22:21;10.90;99.90
15916;DHT22;8057;47.830;-3.870;2023-04-01T06:26:46;10.90;99.90
15916;DHT22;8057;47.830;-3.870;2023-04-01T06:31:10;11.00;99.90
15916;DHT22;8057;47.830;-3.870;2023-04-01T06:35:48;11.20;99.90
15916;DHT22;8057;47.830;-3.870;2023-04-01T06:55:36;11.70;99.90
15916;DHT22;8057;47.830;-3.870;2023-04-01T07:00:25;11.70;99.90
15916;DHT22;8057;47.830;-3.870;2023-04-01T07:05:30;11.60;99.90
15916;DHT22;8057;47.830;-3.870;2023-04-01T07:09:58;11.50;99.90
15916;DHT22;8057;47.830;-3.870;2023-04-01T07:15:03;11.30;99.90
15916;DHT22;8057;47.830;-3.870;2023-04-01T07:24:17;11.10;99.90
15916;DHT22;8057;47.830;-3.870;2023-04-01T07:28:31;11.00;99.90
15916;DHT22;8057;47.830;-3.870;2023-04-01T07:37:30;10.90;99.90
15916;DHT22;8057;47.830;-3.870;2023-04-01T07:41:49;10.90;99.90
15916;DHT22;8057;47.830;-3.870;2023-04-01T07:46:48;11.00;99.90
15916;DHT22;8057;47.830;-3.870;2023-04-01T08:23:55;11.60;99.90
15916;DHT22;8057;47.830;-3.870;2023-04-01T08:33:49;11.00;99.90
15916;DHT22;8057;47.830;-3.870;2023-04-01T08:57:04;10.80;99.90
15916;DHT22;8057;47.830;-3.870;2023-04-01T09:02:25;11.00;99.90
15916;DHT22;8057;47.830;-3.870;2023-04-01T09:07:14;11.20;99.90
15916;DHT22;8057;47.830;-3.870;2023-04-01T09:11:38;11.00;99.90
15916;DHT22;8057;47.830;-3.870;2023-04-01T09:16:13;10.80;99.90
15916;DHT22;8057;47.830;-3.870;2023-04-01T09:31:39;11.30;99.90
15916;DHT22;8057;47.830;-3.870;2023-04-01T09:41:52;12.50;99.90
15916;DHT22;8057;47.830;-3.870;2023-04-01T09:47:15;12.50;99.90
15916;DHT22;8057;47.830;-3.870;2023-04-01T09:51:36;12.00;99.90
15916;DHT22;8057;47.830;-3.870;2023-04-01T10:05:38;12.50;99.90
15916;DHT22;8057;47.830;-3.870;2023-04-01T10:10:24;12.70;99.90
15916;DHT22;8057;47.830;-3.870;2023-04-01T10:40:53;12.00;99.90
15916;DHT22;8057;47.830;-3.870;2023-04-01T10:45:50;11.90;99.90
15916;DHT22;8057;47.830;-3.870;2023-04-01T11:04:54;13.30;99.90
15916;DHT22;8057;47.830;-3.870;2023-04-01T11:14:17;13.00;99.90
15916;DHT22;8057;47.830;-3.870;2023-04-01T11:18:58;13.10;99.90
15916;DHT22;8057;47.830;-3.870;2023-04-01T14:49:31;15.70;99.90
15916;DHT22;8057;47.830;-3.870;2023-04-01T14:54:00;15.90;99.90
15916;DHT22;8057;47.830;-3.870;2023-04-01T14:58:13;15.90;99.90
15916;DHT22;8057;47.830;-3.870;2023-04-01T15:02:47;15.80;99.90
15916;DHT22;8057;47.830;-3.870;2023-04-01T15:07:19;15.60;99.90
15916;DHT22;8057;47.830;-3.870;2023-04-01T15:11:37;15.50;99.90
15916;DHT22;8057;47.830;-3.870;2023-04-01T15:16:06;15.50;99.90
15916;DHT22;8057;47.830;-3.870;2023-04-01T15:25:17;15.60;99.90
15916;DHT22;8057;47.830;-3.870;2023-04-01T15:34:36;15.10;99.90
15916;DHT22;8057;47.830;-3.870;2023-04-01T15:38:56;15.10;99.90
15916;DHT22;8057;47.830;-3.870;2023-04-01T15:43:22;15.20;99.90
15916;DHT22;8057;47.830;-3.870;2023-04-01T15:47:42;15.10;99.90
15916;DHT22;8057;47.830;-3.870;2023-04-01T15:52:10;15.40;99.90
15916;DHT22;8057;47.830;-3.870;2023-04-01T15:56:42;15.70;99.90
15916;DHT22;8057;47.830;-3.870;2023-04-01T16:01:46;15.60;99.90
15916;DHT22;8057;47.830;-3.870;2023-04-01T16:06:23;15.40;99.90
15916;DHT22;8057;47.830;-3.870;2023-04-01T16:10:54;15.30;99.90
15916;DHT22;8057;47.830;-3.870;2023-04-01T16:15:26;15.40;99.90
15916;DHT22;8057;47.830;-3.870;2023-04-01T16:29:04;14.90;99.90
15916;DHT22;8057;47.830;-3.870;2023-04-01T16:33:24;15.00;99.90
15916;DHT22;8057;47.830;-3.870;2023-04-01T16:37:47;15.10;99.90
15916;DHT22;8057;47.830;-3.870;2023-04-01T16:42:18;15.00;99.90
15916;DHT22;8057;47.830;-3.870;2023-04-01T17:01:05;14.20;99.90
15916;DHT22;8057;47.830;-3.870;2023-04-01T17:15:33;13.30;99.90
15916;DHT22;8057;47.830;-3.870;2023-04-01T22:56:13;11.20;99.90
15916;DHT22;8057;47.830;-3.870;2023-04-01T23:01:19;11.20;99.90
15916;DHT22;8057;47.830;-3.870;2023-04-01T23:06:05;11.10;99.90
15916;DHT22;8057;47.830;-3.870;2023-04-01T23:11:44;11.10;99.90
15916;DHT22;8057;47.830;-3.870;2023-04-01T23:22:38;11.10;99.90
